sensor_id;sensor_type;location;lat;lon;timestamp;temperature;humidity
21570;DHT22;57598;50.888;4.746;2022-08-26T00:00:30;22.40;99.90
21570;DHT22;57598;50.888;4.746;2022-08-26T00:02:58;22.40;99.90
21570;DHT22;57598;50.888;4.746;2022-08-26T00:05:25;22.40;99.90
21570;DHT22;57598;50.888;4.746;2022-08-26T00:07:52;22.40;99.90
21570;DHT22;57598;50.888;4.746;2022-08-26T00:10:20;22.40;99.90
21570;DHT22;57598;50.888;4.746;2022-08-26T00:12:47;22.40;99.90
21570;DHT22;57598;50.888;4.746;2022-08-26T00:15:18;22.50;99.90
21570;DHT22;57598;50.888;4.746;2022-08-26T00:17:47;22.30;99.90
21570;DHT22;57598;50.888;4.746;2022-08-26T00:20:17;22.40;99.90
21570;DHT22;57598;50.888;4.746;2022-08-26T00:22:45;22.40;99.90
21570;DHT22;57598;50.888;4.746;2022-08-26T00:25:12;22.40;99.90
21570;DHT22;57598;50.888;4.746;2022-08-26T00:27:40;22.40;99.90
21570;DHT22;57598;50.888;4.746;2022-08-26T00:30:12;22.40;99.90
21570;DHT22;57598;50.888;4.746;2022-08-26T00:32:39;22.40;99.90
21570;DHT22;57598;50.888;4.746;2022-08-26T00:35:08;22.30;99.90
21570;DHT22;57598;50.888;4.746;2022-08-26T00:37:36;22.30;99.90
21570;DHT22;57598;50.888;4.746;2022-08-26T00:40:04;22.30;99.90
21570;DHT22;57598;50.888;4.746;2022-08-26T00:42:31;22.20;99.90
21570;DHT22;57598;50.888;4.746;2022-08-26T00:44:58;22.20;99.90
21570;DHT22;57598;50.888;4.746;2022-08-26T00:47:29;22.20;99.90
21570;DHT22;57598;50.888;4.746;2022-08-26T00:49:59;22.20;99.90
21570;DHT22;57598;50.888;4.746;2022-08-26T00:52:30;22.20;99.90
21570;DHT22;57598;50.888;4.746;2022-08-26T00:55:03;22.30;99.90
21570;DHT22;57598;50.888;4.746;2022-08-26T00:57:31;22.20;99.90
21570;DHT22;57598;50.888;4.746;2022-08-26T01:00:00;22.10;99.90
21570;DHT22;57598;50.888;4.746;2022-08-26T01:02:29;22.10;99.90
21570;DHT22;57598;50.888;4.746;2022-08-26T01:04:59;22.20;99.90
21570;DHT22;57598;50.888;4.746;2022-08-26T01:07:30;22.20;99.90
21570;DHT22;57598;50.888;4.746;2022-08-26T01:09:58;22.30;99.90
21570;DHT22;57598;50.888;4.746;2022-08-26T01:12:27;22.20;99.90
21570;DHT22;57598;50.888;4.746;2022-08-26T01:14:54;22.20;99.90
21570;DHT22;57598;50.888;4.746;2022-08-26T01:17:22;22.10;99.90
21570;DHT22;57598;50.888;4.746;2022-08-26T01:19:50;22.10;99.90
21570;DHT22;57598;50.888;4.746;2022-08-26T01:22:21;22.10;99.90
21570;DHT22;57598;50.888;4.746;2022-08-26T01:24:51;22.00;99.90
21570;DHT22;57598;50.888;4.746;2022-08-26T01:27:19;22.10;99.90
21570;DHT22;57598;50.888;4.746;2022-08-26T01:29:48;22.00;99.90
21570;DHT22;57598;50.888;4.746;2022-08-26T01:32:19;21.90;99.90
21570;DHT22;57598;50.888;4.746;2022-08-26T01:34:48;22.00;99.90
21570;DHT22;57598;50.888;4.746;2022-08-26T01:37:17;22.00;99.90
21570;DHT22;57598;50.888;4.746;2022-08-26T01:39:47;21.90;99.90
21570;DHT22;57598;50.888;4.746;2022-08-26T01:42:17;21.90;99.90
21570;DHT22;57598;50.888;4.746;2022-08-26T01:44:46;21.80;99.90
21570;DHT22;57598;50.888;4.746;2022-08-26T01:47:16;21.90;99.90
21570;DHT22;57598;50.888;4.746;2022-08-26T01:49:47;21.90;99.90
21570;DHT22;57598;50.888;4.746;2022-08-26T01:52:21;21.80;99.90
21570;DHT22;57598;50.888;4.746;2022-08-26T01:54:48;21.80;99.90
21570;DHT22;57598;50.888;4.746;2022-08-26T01:57:18;21.80;99.90
21570;DHT22;57598;50.888;4.746;2022-08-26T01:59:46;21.80;99.90
21570;DHT22;57598;50.888;4.746;2022-08-26T02:02:13;21.80;99.90
21570;DHT22;57598;50.888;4.746;2022-08-26T02:04:45;21.80;99.90
21570;DHT22;57598;50.888;4.746;2022-08-26T02:07:13;21.80;99.90
21570;DHT22;57598;50.888;4.746;2022-08-26T02:09:42;21.70;99.90
21570;DHT22;57598;50.888;4.746;2022-08-26T02:12:11;21.70;99.90
21570;DHT22;57598;50.888;4.746;2022-08-26T02:14:42;21.70;99.90
21570;DHT22;57598;50.888;4.746;2022-08-26T02:17:11;21.80;99.90
21570;DHT22;57598;50.888;4.746;2022-08-26T02:19:41;21.90;99.90
21570;DHT22;57598;50.888;4.746;2022-08-26T02:22:13;21.90;99.90
21570;DHT22;57598;50.888;4.746;2022-08-26T02:24:47;21.90;99.90
21570;DHT22;57598;50.888;4.746;2022-08-26T02:27:15;21.80;99.90
21570;DHT22;57598;50.888;4.746;2022-08-26T02:29:46;21.80;99.90
21570;DHT22;57598;50.888;4.746;2022-08-26T02:32:14;21.80;99.90
21570;DHT22;57598;50.888;4.746;2022-08-26T02:34:41;21.80;99.90
21570;DHT22;57598;50.888;4.746;2022-08-26T02:37:09;21.80;99.90
21570;DHT22;57598;50.888;4.746;2022-08-26T02:39:38;21.80;99.90
21570;DHT22;57598;50.888;4.746;2022-08-26T02:42:06;21.80;99.90
21570;DHT22;57598;50.888;4.746;2022-08-26T02:44:33;21.80;99.90
21570;DHT22;57598;50.888;4.746;2022-08-26T02:47:02;21.80;99.90
21570;DHT22;57598;50.888;4.746;2022-08-26T02:49:29;21.80;99.90
21570;DHT22;57598;50.888;4.746;2022-08-26T02:51:56;21.80;99.90
21570;DHT22;57598;50.888;4.746;2022-08-26T02:54:25;21.80;99.90
21570;DHT22;57598;50.888;4.746;2022-08-26T02:56:52;21.80;99.90
21570;DHT22;57598;50.888;4.746;2022-08-26T02:59:20;21.70;99.90
21570;DHT22;57598;50.888;4.746;2022-08-26T03:01:47;21.80;99.90
21570;DHT22;57598;50.888;4.746;2022-08-26T03:04:16;21.50;99.90
21570;DHT22;57598;50.888;4.746;2022-08-26T03:06:43;21.60;99.90
21570;DHT22;57598;50.888;4.746;2022-08-26T03:09:10;21.50;99.90
21570;DHT22;57598;50.888;4.746;2022-08-26T03:11:37;21.50;99.90
21570;DHT22;57598;50.888;4.746;2022-08-26T03:14:05;21.60;99.90
21570;DHT22;57598;50.888;4.746;2022-08-26T03:16:33;21.50;99.90
21570;DHT22;57598;50.888;4.746;2022-08-26T03:19:00;21.60;99.90
21570;DHT22;57598;50.888;4.746;2022-08-26T03:21:29;21.50;99.90
21570;DHT22;57598;50.888;4.746;2022-08-26T03:23:57;21.50;99.90
21570;DHT22;57598;50.888;4.746;2022-08-26T03:26:25;21.50;99.90
21570;DHT22;57598;50.888;4.746;2022-08-26T03:28:53;21.40;99.90
21570;DHT22;57598;50.888;4.746;2022-08-26T03:31:37;21.30;99.90
21570;DHT22;57598;50.888;4.746;2022-08-26T03:34:05;21.30;99.90
21570;DHT22;57598;50.888;4.746;2022-08-26T03:36:33;21.30;99.90
21570;DHT22;57598;50.888;4.746;2022-08-26T03:39:00;21.30;99.90
21570;DHT22;57598;50.888;4.746;2022-08-26T03:41:27;21.20;99.90
21570;DHT22;57598;50.888;4.746;2022-08-26T03:43:57;21.20;99.90
21570;DHT22;57598;50.888;4.746;2022-08-26T03:46:24;21.10;99.90
21570;DHT22;57598;50.888;4.746;2022-08-26T03:48:51;21.10;99.90
21570;DHT22;57598;50.888;4.746;2022-08-26T03:51:18;21.20;99.90
21570;DHT22;57598;50.888;4.746;2022-08-26T03:53:47;21.10;99.90
21570;DHT22;57598;50.888;4.746;2022-08-26T03:56:14;21.00;99.90
21570;DHT22;57598;50.888;4.746;2022-08-26T03:58:41;21.00;99.90
21570;DHT22;57598;50.888;4.746;2022-08-26T04:01:10;21.20;99.90
21570;DHT22;57598;50.888;4.746;2022-08-26T04:03:37;21.00;99.90
21570;DHT22;57598;50.888;4.746;2022-08-26T04:06:22;21.00;99.90
21570;DHT22;57598;50.888;4.746;2022-08-26T04:08:50;21.00;99.90
21570;DHT22;57598;50.888;4.746;2022-08-26T04:11:26;21.00;99.90
21570;DHT22;57598;50.888;4.746;2022-08-26T04:13:57;21.00;99.90
21570;DHT22;57598;50.888;4.746;2022-08-26T04:16:27;21.10;99.90
21570;DHT22;57598;50.888;4.746;2022-08-26T04:18:54;21.10;99.90
21570;DHT22;57598;50.888;4.746;2022-08-26T04:21:22;21.20;99.90
21570;DHT22;57598;50.888;4.746;2022-08-26T04:23:51;21.20;99.90
21570;DHT22;57598;50.888;4.746;2022-08-26T04:26:19;21.20;99.90
21570;DHT22;57598;50.888;4.746;2022-08-26T04:28:46;21.20;99.90
21570;DHT22;57598;50.888;4.746;2022-08-26T04:31:15;21.20;99.90
21570;DHT22;57598;50.888;4.746;2022-08-26T04:33:43;21.10;99.90
21570;DHT22;57598;50.888;4.746;2022-08-26T04:36:11;21.00;99.90
21570;DHT22;57598;50.888;4.746;2022-08-26T04:38:38;20.90;99.90
21570;DHT22;57598;50.888;4.746;2022-08-26T04:41:08;21.10;99.90
21570;DHT22;57598;50.888;4.746;2022-08-26T04:43:36;21.00;99.90
21570;DHT22;57598;50.888;4.746;2022-08-26T04:46:04;21.00;99.90
21570;DHT22;57598;50.888;4.746;2022-08-26T04:48:32;21.00;99.90
21570;DHT22;57598;50.888;4.746;2022-08-26T04:51:00;21.00;99.90
21570;DHT22;57598;50.888;4.746;2022-08-26T04:53:28;21.10;99.90
21570;DHT22;57598;50.888;4.746;2022-08-26T04:55:56;21.10;99.90
21570;DHT22;57598;50.888;4.746;2022-08-26T04:58:24;21.20;99.90
21570;DHT22;57598;50.888;4.746;2022-08-26T05:00:53;21.20;99.90
21570;DHT22;57598;50.888;4.746;2022-08-26T05:03:22;21.10;99.90
21570;DHT22;57598;50.888;4.746;2022-08-26T05:05:49;21.10;99.90
21570;DHT22;57598;50.888;4.746;2022-08-26T05:08:20;21.20;99.90
21570;DHT22;57598;50.888;4.746;2022-08-26T05:10:50;21.10;99.90
21570;DHT22;57598;50.888;4.746;2022-08-26T05:13:22;21.10;99.90
21570;DHT22;57598;50.888;4.746;2022-08-26T05:15:52;21.20;99.90
21570;DHT22;57598;50.888;4.746;2022-08-26T05:18:21;21.20;99.90
21570;DHT22;57598;50.888;4.746;2022-08-26T05:20:51;21.20;99.90
21570;DHT22;57598;50.888;4.746;2022-08-26T05:23:19;21.20;99.90
21570;DHT22;57598;50.888;4.746;2022-08-26T05:25:51;21.10;99.90
21570;DHT22;57598;50.888;4.746;2022-08-26T05:28:18;21.10;99.90
21570;DHT22;57598;50.888;4.746;2022-08-26T05:30:47;21.20;99.90
21570;DHT22;57598;50.888;4.746;2022-08-26T05:33:17;21.20;99.90
21570;DHT22;57598;50.888;4.746;2022-08-26T05:35:44;21.20;99.90
21570;DHT22;57598;50.888;4.746;2022-08-26T05:38:14;21.20;99.90
21570;DHT22;57598;50.888;4.746;2022-08-26T05:40:45;21.20;99.90
21570;DHT22;57598;50.888;4.746;2022-08-26T05:43:14;21.30;99.90
21570;DHT22;57598;50.888;4.746;2022-08-26T05:45:43;21.20;99.90
21570;DHT22;57598;50.888;4.746;2022-08-26T05:48:10;21.20;99.90
21570;DHT22;57598;50.888;4.746;2022-08-26T05:50:41;21.20;99.90
21570;DHT22;57598;50.888;4.746;2022-08-26T05:53:09;21.20;99.90
21570;DHT22;57598;50.888;4.746;2022-08-26T05:55:41;21.10;99.90
21570;DHT22;57598;50.888;4.746;2022-08-26T05:58:08;21.30;99.90
21570;DHT22;57598;50.888;4.746;2022-08-26T06:00:35;21.20;99.90
21570;DHT22;57598;50.888;4.746;2022-08-26T06:03:03;21.30;99.90
21570;DHT22;57598;50.888;4.746;2022-08-26T06:05:30;21.20;99.90
21570;DHT22;57598;50.888;4.746;2022-08-26T06:07:58;21.30;99.90
21570;DHT22;57598;50.888;4.746;2022-08-26T06:10:43;21.20;99.90
21570;DHT22;57598;50.888;4.746;2022-08-26T06:13:10;21.40;99.90
21570;DHT22;57598;50.888;4.746;2022-08-26T06:15:39;21.30;99.90
21570;DHT22;57598;50.888;4.746;2022-08-26T06:18:08;21.30;99.90
21570;DHT22;57598;50.888;4.746;2022-08-26T06:20:35;21.40;99.90
21570;DHT22;57598;50.888;4.746;2022-08-26T06:23:03;21.50;99.90
21570;DHT22;57598;50.888;4.746;2022-08-26T06:25:48;21.40;99.90
21570;DHT22;57598;50.888;4.746;2022-08-26T06:28:15;21.50;99.90
21570;DHT22;57598;50.888;4.746;2022-08-26T06:30:42;21.50;99.90
21570;DHT22;57598;50.888;4.746;2022-08-26T06:33:09;21.50;99.90
21570;DHT22;57598;50.888;4.746;2022-08-26T06:35:40;21.60;99.90
21570;DHT22;57598;50.888;4.746;2022-08-26T06:38:09;21.70;99.90
21570;DHT22;57598;50.888;4.746;2022-08-26T06:40:40;21.80;99.90
21570;DHT22;57598;50.888;4.746;2022-08-26T06:43:08;21.90;99.90
21570;DHT22;57598;50.888;4.746;2022-08-26T06:45:35;21.90;99.90
21570;DHT22;57598;50.888;4.746;2022-08-26T06:48:03;21.80;99.90
21570;DHT22;57598;50.888;4.746;2022-08-26T06:50:31;21.90;99.90
21570;DHT22;57598;50.888;4.746;2022-08-26T06:52:58;22.00;99.90
21570;DHT22;57598;50.888;4.746;2022-08-26T06:55:27;21.80;99.90
21570;DHT22;57598;50.888;4.746;2022-08-26T06:57:55;21.80;99.90
21570;DHT22;57598;50.888;4.746;2022-08-26T07:00:22;22.00;99.90
21570;DHT22;57598;50.888;4.746;2022-08-26T07:02:49;22.10;99.90
21570;DHT22;57598;50.888;4.746;2022-08-26T07:05:16;22.20;99.90
21570;DHT22;57598;50.888;4.746;2022-08-26T07:07:45;22.30;99.90
21570;DHT22;57598;50.888;4.746;2022-08-26T07:10:13;22.50;99.90
21570;DHT22;57598;50.888;4.746;2022-08-26T07:12:42;22.60;99.90
21570;DHT22;57598;50.888;4.746;2022-08-26T07:15:09;22.70;99.90
21570;DHT22;57598;50.888;4.746;2022-08-26T07:17:37;22.40;99.90
21570;DHT22;57598;50.888;4.746;2022-08-26T07:20:04;22.30;99.90
21570;DHT22;57598;50.888;4.746;2022-08-26T07:22:33;22.40;99.90
21570;DHT22;57598;50.888;4.746;2022-08-26T07:25:00;22.20;99.90
21570;DHT22;57598;50.888;4.746;2022-08-26T07:27:27;22.20;99.90
21570;DHT22;57598;50.888;4.746;2022-08-26T07:29:56;22.20;99.90
21570;DHT22;57598;50.888;4.746;2022-08-26T07:32:23;22.30;99.90
21570;DHT22;57598;50.888;4.746;2022-08-26T07:34:50;22.50;99.90
21570;DHT22;57598;50.888;4.746;2022-08-26T07:37:17;22.60;99.90
21570;DHT22;57598;50.888;4.746;2022-08-26T07:39:45;22.60;99.90
21570;DHT22;57598;50.888;4.746;2022-08-26T07:42:13;22.80;99.90
21570;DHT22;57598;50.888;4.746;2022-08-26T07:44:42;23.00;99.90
21570;DHT22;57598;50.888;4.746;2022-08-26T07:47:11;23.10;99.90
21570;DHT22;57598;50.888;4.746;2022-08-26T07:49:38;23.10;99.90
21570;DHT22;57598;50.888;4.746;2022-08-26T07:52:06;23.20;99.90
21570;DHT22;57598;50.888;4.746;2022-08-26T07:54:33;23.50;99.90
21570;DHT22;57598;50.888;4.746;2022-08-26T07:57:02;23.60;99.90
21570;DHT22;57598;50.888;4.746;2022-08-26T07:59:29;23.40;99.90
21570;DHT22;57598;50.888;4.746;2022-08-26T08:01:56;23.40;99.90
21570;DHT22;57598;50.888;4.746;2022-08-26T08:04:25;23.40;99.90
21570;DHT22;57598;50.888;4.746;2022-08-26T08:06:53;23.60;99.90
21570;DHT22;57598;50.888;4.746;2022-08-26T08:09:21;23.60;99.90
21570;DHT22;57598;50.888;4.746;2022-08-26T08:11:48;23.50;99.90
21570;DHT22;57598;50.888;4.746;2022-08-26T08:14:16;23.70;99.90
21570;DHT22;57598;50.888;4.746;2022-08-26T08:16:44;23.80;99.90
21570;DHT22;57598;50.888;4.746;2022-08-26T08:19:12;24.30;99.90
21570;DHT22;57598;50.888;4.746;2022-08-26T08:21:41;24.20;99.90
21570;DHT22;57598;50.888;4.746;2022-08-26T08:24:09;24.10;99.90
21570;DHT22;57598;50.888;4.746;2022-08-26T08:26:36;24.40;99.90
21570;DHT22;57598;50.888;4.746;2022-08-26T08:29:03;24.40;99.90
21570;DHT22;57598;50.888;4.746;2022-08-26T08:31:32;24.50;99.90
21570;DHT22;57598;50.888;4.746;2022-08-26T08:33:59;24.30;99.90
21570;DHT22;57598;50.888;4.746;2022-08-26T08:36:26;24.00;99.90
21570;DHT22;57598;50.888;4.746;2022-08-26T08:38:55;23.90;99.90
21570;DHT22;57598;50.888;4.746;2022-08-26T08:41:35;23.90;99.90
21570;DHT22;57598;50.888;4.746;2022-08-26T08:44:09;24.00;99.90
21570;DHT22;57598;50.888;4.746;2022-08-26T08:46:39;24.00;99.90
21570;DHT22;57598;50.888;4.746;2022-08-26T08:49:08;24.00;99.90
21570;DHT22;57598;50.888;4.746;2022-08-26T08:51:38;23.80;99.90
21570;DHT22;57598;50.888;4.746;2022-08-26T08:54:09;23.60;99.90
21570;DHT22;57598;50.888;4.746;2022-08-26T08:56:38;23.50;99.90
21570;DHT22;57598;50.888;4.746;2022-08-26T08:59:12;23.50;99.90
21570;DHT22;57598;50.888;4.746;2022-08-26T09:01:54;23.40;99.90
21570;DHT22;57598;50.888;4.746;2022-08-26T09:04:48;23.20;99.90
21570;DHT22;57598;50.888;4.746;2022-08-26T09:07:19;23.20;99.90
21570;DHT22;57598;50.888;4.746;2022-08-26T09:09:53;23.30;99.90
21570;DHT22;57598;50.888;4.746;2022-08-26T09:12:24;23.20;99.90
21570;DHT22;57598;50.888;4.746;2022-08-26T09:14:52;23.20;99.90
21570;DHT22;57598;50.888;4.746;2022-08-26T09:17:34;23.20;99.90
21570;DHT22;57598;50.888;4.746;2022-08-26T09:20:11;23.20;99.90
21570;DHT22;57598;50.888;4.746;2022-08-26T09:22:40;23.20;99.90
21570;DHT22;57598;50.888;4.746;2022-08-26T09:25:12;22.90;99.90
21570;DHT22;57598;50.888;4.746;2022-08-26T09:27:43;22.80;99.90
21570;DHT22;57598;50.888;4.746;2022-08-26T09:30:14;22.90;99.90
21570;DHT22;57598;50.888;4.746;2022-08-26T09:32:41;22.90;99.90
21570;DHT22;57598;50.888;4.746;2022-08-26T09:35:24;22.90;99.90
21570;DHT22;57598;50.888;4.746;2022-08-26T09:37:51;22.90;99.90
21570;DHT22;57598;50.888;4.746;2022-08-26T09:40:25;23.00;99.90
21570;DHT22;57598;50.888;4.746;2022-08-26T09:43:14;23.00;99.90
21570;DHT22;57598;50.888;4.746;2022-08-26T09:45:44;23.10;99.90
21570;DHT22;57598;50.888;4.746;2022-08-26T09:48:23;22.90;99.90
21570;DHT22;57598;50.888;4.746;2022-08-26T09:50:53;22.80;99.90
21570;DHT22;57598;50.888;4.746;2022-08-26T09:53:22;22.70;99.90
21570;DHT22;57598;50.888;4.746;2022-08-26T09:56:10;22.90;99.90
21570;DHT22;57598;50.888;4.746;2022-08-26T09:58:40;23.00;99.90
21570;DHT22;57598;50.888;4.746;2022-08-26T10:01:13;22.90;99.90
21570;DHT22;57598;50.888;4.746;2022-08-26T10:03:41;23.00;99.90
21570;DHT22;57598;50.888;4.746;2022-08-26T10:06:20;23.00;99.90
21570;DHT22;57598;50.888;4.746;2022-08-26T10:08:54;23.00;99.90
21570;DHT22;57598;50.888;4.746;2022-08-26T10:11:34;23.10;99.90
21570;DHT22;57598;50.888;4.746;2022-08-26T10:14:08;22.90;99.90
21570;DHT22;57598;50.888;4.746;2022-08-26T10:16:47;22.90;99.90
21570;DHT22;57598;50.888;4.746;2022-08-26T10:19:17;23.10;99.90
21570;DHT22;57598;50.888;4.746;2022-08-26T10:21:50;23.40;99.90
21570;DHT22;57598;50.888;4.746;2022-08-26T10:24:24;23.60;99.90
21570;DHT22;57598;50.888;4.746;2022-08-26T10:27:01;23.80;99.90
21570;DHT22;57598;50.888;4.746;2022-08-26T10:29:32;23.70;99.90
21570;DHT22;57598;50.888;4.746;2022-08-26T10:32:05;23.60;99.90
21570;DHT22;57598;50.888;4.746;2022-08-26T10:34:37;23.50;99.90
21570;DHT22;57598;50.888;4.746;2022-08-26T10:37:09;23.40;99.90
21570;DHT22;57598;50.888;4.746;2022-08-26T10:39:43;23.30;99.90
21570;DHT22;57598;50.888;4.746;2022-08-26T10:42:17;23.20;99.90
21570;DHT22;57598;50.888;4.746;2022-08-26T10:44:48;23.20;99.90
21570;DHT22;57598;50.888;4.746;2022-08-26T10:47:18;23.10;99.90
21570;DHT22;57598;50.888;4.746;2022-08-26T10:49:48;22.90;99.90
21570;DHT22;57598;50.888;4.746;2022-08-26T10:52:20;22.90;99.90
21570;DHT22;57598;50.888;4.746;2022-08-26T10:54:53;22.80;99.90
21570;DHT22;57598;50.888;4.746;2022-08-26T10:57:30;22.90;99.90
21570;DHT22;57598;50.888;4.746;2022-08-26T11:00:07;22.90;99.90
21570;DHT22;57598;50.888;4.746;2022-08-26T11:02:51;22.90;99.90
21570;DHT22;57598;50.888;4.746;2022-08-26T11:05:21;22.90;99.90
21570;DHT22;57598;50.888;4.746;2022-08-26T11:07:50;22.90;99.90
21570;DHT22;57598;50.888;4.746;2022-08-26T11:13:58;22.80;99.90
21570;DHT22;57598;50.888;4.746;2022-08-26T11:16:37;22.80;99.90
21570;DHT22;57598;50.888;4.746;2022-08-26T11:19:05;22.80;99.90
21570;DHT22;57598;50.888;4.746;2022-08-26T11:21:48;23.00;99.90
21570;DHT22;57598;50.888;4.746;2022-08-26T11:24:45;23.30;99.90
21570;DHT22;57598;50.888;4.746;2022-08-26T11:30:50;23.10;99.90
21570;DHT22;57598;50.888;4.746;2022-08-26T11:33:44;23.30;99.90
21570;DHT22;57598;50.888;4.746;2022-08-26T11:36:28;23.60;99.90
21570;DHT22;57598;50.888;4.746;2022-08-26T11:38:59;23.70;99.90
21570;DHT22;57598;50.888;4.746;2022-08-26T11:41:27;24.00;99.70
21570;DHT22;57598;50.888;4.746;2022-08-26T11:43:56;23.90;99.90
21570;DHT22;57598;50.888;4.746;2022-08-26T11:46:30;23.70;99.70
21570;DHT22;57598;50.888;4.746;2022-08-26T11:49:03;23.70;99.70
21570;DHT22;57598;50.888;4.746;2022-08-26T11:51:31;23.80;99.40
21570;DHT22;57598;50.888;4.746;2022-08-26T11:54:09;24.10;99.90
21570;DHT22;57598;50.888;4.746;2022-08-26T11:56:38;24.30;99.10
21570;DHT22;57598;50.888;4.746;2022-08-26T11:59:08;24.50;98.30
21570;DHT22;57598;50.888;4.746;2022-08-26T12:01:38;24.60;98.00
21570;DHT22;57598;50.888;4.746;2022-08-26T12:04:08;24.90;98.00
21570;DHT22;57598;50.888;4.746;2022-08-26T12:06:44;24.80;97.70
21570;DHT22;57598;50.888;4.746;2022-08-26T12:09:18;24.40;97.70
21570;DHT22;57598;50.888;4.746;2022-08-26T12:11:46;24.30;98.30
21570;DHT22;57598;50.888;4.746;2022-08-26T12:14:16;24.60;97.80
21570;DHT22;57598;50.888;4.746;2022-08-26T12:16:46;24.80;97.00
21570;DHT22;57598;50.888;4.746;2022-08-26T12:19:24;24.50;97.70
21570;DHT22;57598;50.888;4.746;2022-08-26T12:21:53;24.30;97.80
21570;DHT22;57598;50.888;4.746;2022-08-26T12:24:21;24.30;98.70
21570;DHT22;57598;50.888;4.746;2022-08-26T12:26:50;23.80;98.30
21570;DHT22;57598;50.888;4.746;2022-08-26T12:29:29;23.80;98.40
21570;DHT22;57598;50.888;4.746;2022-08-26T12:32:07;23.90;98.60
21570;DHT22;57598;50.888;4.746;2022-08-26T12:34:35;24.00;98.30
21570;DHT22;57598;50.888;4.746;2022-08-26T12:37:02;24.10;97.50
21570;DHT22;57598;50.888;4.746;2022-08-26T12:39:32;23.80;97.60
21570;DHT22;57598;50.888;4.746;2022-08-26T12:42:01;23.80;97.80
21570;DHT22;57598;50.888;4.746;2022-08-26T12:44:56;23.70;98.00
21570;DHT22;57598;50.888;4.746;2022-08-26T12:47:28;23.50;98.20
21570;DHT22;57598;50.888;4.746;2022-08-26T12:50:02;23.40;98.20
21570;DHT22;57598;50.888;4.746;2022-08-26T12:52:32;23.40;98.30
21570;DHT22;57598;50.888;4.746;2022-08-26T12:55:02;23.60;98.40
21570;DHT22;57598;50.888;4.746;2022-08-26T12:57:31;23.70;98.00
21570;DHT22;57598;50.888;4.746;2022-08-26T13:00:22;23.60;98.00
21570;DHT22;57598;50.888;4.746;2022-08-26T13:02:51;23.80;98.00
21570;DHT22;57598;50.888;4.746;2022-08-26T13:05:20;24.10;97.80
21570;DHT22;57598;50.888;4.746;2022-08-26T13:11:01;24.40;96.60
21570;DHT22;57598;50.888;4.746;2022-08-26T13:13:29;24.50;96.20
21570;DHT22;57598;50.888;4.746;2022-08-26T13:15:58;24.70;96.60
21570;DHT22;57598;50.888;4.746;2022-08-26T13:18:27;24.70;95.90
21570;DHT22;57598;50.888;4.746;2022-08-26T13:20:54;24.80;95.70
21570;DHT22;57598;50.888;4.746;2022-08-26T13:23:22;24.30;95.60
21570;DHT22;57598;50.888;4.746;2022-08-26T13:25:50;24.10;96.60
21570;DHT22;57598;50.888;4.746;2022-08-26T13:28:17;23.90;96.70
21570;DHT22;57598;50.888;4.746;2022-08-26T13:30:47;24.20;97.30
21570;DHT22;57598;50.888;4.746;2022-08-26T13:33:14;24.20;96.50
21570;DHT22;57598;50.888;4.746;2022-08-26T13:35:44;24.30;96.50
21570;DHT22;57598;50.888;4.746;2022-08-26T13:38:11;24.40;96.40
21570;DHT22;57598;50.888;4.746;2022-08-26T13:40:40;24.40;96.10
21570;DHT22;57598;50.888;4.746;2022-08-26T13:43:08;24.60;96.60
21570;DHT22;57598;50.888;4.746;2022-08-26T13:45:35;24.60;96.10
21570;DHT22;57598;50.888;4.746;2022-08-26T13:48:03;24.50;95.90
21570;DHT22;57598;50.888;4.746;2022-08-26T13:50:30;24.30;96.20
21570;DHT22;57598;50.888;4.746;2022-08-26T13:52:59;24.60;96.40
21570;DHT22;57598;50.888;4.746;2022-08-26T13:55:26;25.40;95.20
21570;DHT22;57598;50.888;4.746;2022-08-26T13:57:53;25.70;94.00
21570;DHT22;57598;50.888;4.746;2022-08-26T14:00:20;25.90;93.30
21570;DHT22;57598;50.888;4.746;2022-08-26T14:02:50;25.70;94.10
21570;DHT22;57598;50.888;4.746;2022-08-26T14:05:18;25.40;94.40
21570;DHT22;57598;50.888;4.746;2022-08-26T14:07:45;25.10;94.70
21570;DHT22;57598;50.888;4.746;2022-08-26T14:10:13;25.10;94.90
21570;DHT22;57598;50.888;4.746;2022-08-26T14:12:41;24.90;94.40
21570;DHT22;57598;50.888;4.746;2022-08-26T14:15:09;24.70;94.80
21570;DHT22;57598;50.888;4.746;2022-08-26T14:17:36;24.60;95.10
21570;DHT22;57598;50.888;4.746;2022-08-26T14:20:04;24.60;94.90
21570;DHT22;57598;50.888;4.746;2022-08-26T14:22:35;24.80;95.10
21570;DHT22;57598;50.888;4.746;2022-08-26T14:25:04;25.10;94.50
21570;DHT22;57598;50.888;4.746;2022-08-26T14:27:32;25.10;94.40
21570;DHT22;57598;50.888;4.746;2022-08-26T14:29:59;25.20;94.70
21570;DHT22;57598;50.888;4.746;2022-08-26T14:32:27;25.40;94.00
21570;DHT22;57598;50.888;4.746;2022-08-26T14:34:54;25.80;94.10
21570;DHT22;57598;50.888;4.746;2022-08-26T14:37:21;26.20;93.10
21570;DHT22;57598;50.888;4.746;2022-08-26T14:39:48;26.60;92.60
21570;DHT22;57598;50.888;4.746;2022-08-26T14:42:19;26.40;92.70
21570;DHT22;57598;50.888;4.746;2022-08-26T14:44:52;25.90;93.10
21570;DHT22;57598;50.888;4.746;2022-08-26T14:47:20;25.40;93.90
21570;DHT22;57598;50.888;4.746;2022-08-26T14:49:47;25.70;93.40
21570;DHT22;57598;50.888;4.746;2022-08-26T14:52:14;25.80;92.90
21570;DHT22;57598;50.888;4.746;2022-08-26T14:54:42;25.80;93.70
21570;DHT22;57598;50.888;4.746;2022-08-26T14:57:10;25.60;93.30
21570;DHT22;57598;50.888;4.746;2022-08-26T14:59:38;25.60;93.40
21570;DHT22;57598;50.888;4.746;2022-08-26T15:02:08;25.70;93.10
21570;DHT22;57598;50.888;4.746;2022-08-26T15:04:36;25.00;92.80
21570;DHT22;57598;50.888;4.746;2022-08-26T15:07:03;24.70;93.20
21570;DHT22;57598;50.888;4.746;2022-08-26T15:09:33;24.50;93.80
21570;DHT22;57598;50.888;4.746;2022-08-26T15:12:01;24.50;93.90
21570;DHT22;57598;50.888;4.746;2022-08-26T15:14:28;24.50;93.70
21570;DHT22;57598;50.888;4.746;2022-08-26T15:16:56;24.80;93.80
21570;DHT22;57598;50.888;4.746;2022-08-26T15:19:25;25.20;92.90
21570;DHT22;57598;50.888;4.746;2022-08-26T15:21:53;25.40;93.10
21570;DHT22;57598;50.888;4.746;2022-08-26T15:24:22;25.40;92.70
21570;DHT22;57598;50.888;4.746;2022-08-26T15:26:50;25.40;93.10
21570;DHT22;57598;50.888;4.746;2022-08-26T15:29:17;25.50;92.80
21570;DHT22;57598;50.888;4.746;2022-08-26T15:31:44;25.70;92.40
21570;DHT22;57598;50.888;4.746;2022-08-26T15:34:12;25.60;92.50
21570;DHT22;57598;50.888;4.746;2022-08-26T15:36:40;25.70;92.80
21570;DHT22;57598;50.888;4.746;2022-08-26T15:39:10;26.00;93.80
21570;DHT22;57598;50.888;4.746;2022-08-26T15:41:37;25.90;92.30
21570;DHT22;57598;50.888;4.746;2022-08-26T15:44:05;25.90;92.40
21570;DHT22;57598;50.888;4.746;2022-08-26T15:46:32;26.00;91.50
21570;DHT22;57598;50.888;4.746;2022-08-26T15:48:59;25.90;91.80
21570;DHT22;57598;50.888;4.746;2022-08-26T15:51:28;25.70;91.60
21570;DHT22;57598;50.888;4.746;2022-08-26T15:53:57;25.50;92.00
21570;DHT22;57598;50.888;4.746;2022-08-26T15:56:26;25.20;92.10